Time;durP1;ratioP1;P1;durP2;ratioP2;P2;SDS_P1;SDS_P2;PMS_P1;PMS_P2;Temp;Humidity;BMP_temperature;BMP_pressure;BME280_temperature;BME280_humidity;BME280_pressure;Samples;Min_cycle;Max_cycle;Signal;HPM_P1;HPM_P2
2023/04/28 00:00:08;;;;;;;14.73;13.33;;;;;20.10;100283.00;;;;2064425;28;20213;-70
2023/04/28 00:01:09;;;;;;;16.48;13.80;;;;;20.00;100280.00;;;;2063999;28;20241;-70
2023/04/28 00:02:09;;;;;;;17.17;15.37;;;;;20.00;100280.00;;;;2063612;28;20238;-70
2023/04/28 00:03:10;;;;;;;14.47;12.97;;;;;20.00;100284.00;;;;2068054;28;20519;-70
2023/04/28 00:04:10;;;;;;;14.87;12.87;;;;;20.00;100275.00;;;;2067706;28;20301;-71
2023/04/28 00:05:11;;;;;;;17.10;13.23;;;;;20.00;100287.00;;;;2069508;28;20223;-71
2023/04/28 00:06:11;;;;;;;15.00;13.57;;;;;20.00;100279.00;;;;2063562;28;20246;-71
2023/04/28 00:07:12;;;;;;;16.20;13.03;;;;;19.90;100272.00;;;;2063960;28;20225;-71
2023/04/28 00:08:12;;;;;;;15.40;12.70;;;;;20.00;100274.00;;;;2066870;28;20234;-71
2023/04/28 00:09:12;;;;;;;13.87;12.30;;;;;20.00;100261.00;;;;2068607;28;20717;-71
2023/04/28 00:10:13;;;;;;;14.90;12.43;;;;;20.00;100257.00;;;;2072117;28;20709;-71
2023/04/28 00:11:13;;;;;;;14.93;12.50;;;;;20.00;100265.00;;;;2067111;28;20581;-71
2023/04/28 00:12:13;;;;;;;13.73;12.33;;;;;19.90;100265.00;;;;2067304;28;20215;-70
2023/04/28 00:13:14;;;;;;;11.77;10.67;;;;;19.90;100261.00;;;;2064541;28;20222;-70
2023/04/28 00:14:14;;;;;;;13.63;12.17;;;;;19.90;100256.00;;;;2068637;28;20218;-71
2023/04/28 00:15:15;;;;;;;12.70;11.30;;;;;19.90;100253.00;;;;2071176;28;20218;-71
2023/04/28 00:16:15;;;;;;;11.83;10.00;;;;;19.90;100250.00;;;;2063868;28;20357;-70
2023/04/28 00:17:16;;;;;;;14.07;10.43;;;;;19.90;100253.00;;;;2064396;28;20215;-71
2023/04/28 00:18:16;;;;;;;12.67;10.70;;;;;19.90;100235.00;;;;2063552;28;20257;-70
2023/04/28 00:19:16;;;;;;;12.93;11.63;;;;;19.90;100244.00;;;;2068764;28;20263;-70
2023/04/28 00:20:17;;;;;;;12.47;9.90;;;;;19.90;100248.00;;;;2065456;28;20557;-71
2023/04/28 00:21:17;;;;;;;11.57;10.13;;;;;19.90;100247.00;;;;2064110;28;20856;-70
2023/04/28 00:22:18;;;;;;;9.73;8.80;;;;;19.90;100244.00;;;;2064172;28;20253;-71
2023/04/28 00:23:18;;;;;;;11.17;10.07;;;;;19.90;100243.00;;;;2065601;28;20219;-70
2023/04/28 00:24:18;;;;;;;12.77;10.80;;;;;19.90;100246.00;;;;2068809;28;20542;-70
2023/04/28 00:25:19;;;;;;;9.30;8.40;;;;;19.90;100241.00;;;;2063991;28;20994;-71
2023/04/28 00:26:19;;;;;;;11.13;9.43;;;;;19.90;100233.00;;;;2064230;28;20208;-71
2023/04/28 00:27:20;;;;;;;10.27;9.20;;;;;19.90;100229.00;;;;2063826;28;20215;-70
2023/04/28 00:28:20;;;;;;;12.33;10.90;;;;;19.90;100231.00;;;;2063675;28;20640;-70
2023/04/28 00:29:20;;;;;;;10.67;8.30;;;;;19.90;100226.00;;;;2068163;28;20689;-71
2023/04/28 00:30:21;;;;;;;9.80;8.80;;;;;19.90;100230.00;;;;2060226;28;20211;-70
2023/04/28 00:31:21;;;;;;;8.77;7.87;;;;;19.90;100226.00;;;;2056253;28;20258;-71
2023/04/28 00:32:22;;;;;;;10.27;9.17;;;;;19.90;100221.00;;;;2064063;28;20605;-71
2023/04/28 00:33:22;;;;;;;10.60;9.37;;;;;19.90;100227.00;;;;2063717;28;20803;-71
2023/04/28 00:34:22;;;;;;;10.03;8.90;;;;;19.80;100217.00;;;;2063557;28;20635;-71
2023/04/28 00:35:23;;;;;;;10.13;9.13;;;;;19.90;100224.00;;;;2064165;28;20753;-71
2023/04/28 00:36:23;;;;;;;9.53;8.53;;;;;19.90;100226.00;;;;2060553;28;20214;-70
2023/04/28 00:37:23;;;;;;;9.50;8.50;;;;;19.90;100217.00;;;;2055097;28;20314;-71
2023/04/28 00:38:24;;;;;;;9.47;8.53;;;;;19.90;100222.00;;;;2061108;28;20215;-70
2023/04/28 00:39:26;;;;;;;9.60;8.70;;;;;19.90;100207.00;;;;2063375;28;20212;-71
2023/04/28 00:40:36;;;;;;;10.65;8.40;;;;;19.90;100201.00;;;;2069348;28;20210;-71
2023/04/28 00:41:37;;;;;;;10.30;8.70;;;;;19.90;100208.00;;;;2054709;28;20790;-71
2023/04/28 00:42:37;;;;;;;7.90;7.13;;;;;19.80;100202.00;;;;2057850;28;20212;-71
2023/04/28 00:43:47;;;;;;;9.70;8.67;;;;;19.80;100204.00;;;;2063640;28;20230;-71
2023/04/28 00:44:47;;;;;;;8.93;8.02;;;;;19.90;100207.00;;;;2063831;28;20223;-70
2023/04/28 00:45:48;;;;;;;9.70;7.70;;;;;19.80;100212.00;;;;2063692;28;20678;-70
2023/04/28 00:46:49;;;;;;;8.95;7.68;;;;;19.80;100199.00;;;;2064442;28;20227;-70
2023/04/28 00:47:49;;;;;;;8.63;7.70;;;;;19.80;100195.00;;;;2057724;28;20333;-70
2023/04/28 00:48:49;;;;;;;8.70;7.80;;;;;19.90;100203.00;;;;2050028;28;20228;-70
2023/04/28 00:49:51;;;;;;;8.23;7.43;;;;;19.80;100201.00;;;;2055364;28;20219;-70
2023/04/28 00:50:51;;;;;;;9.00;7.35;;;;;19.80;100210.00;;;;2066106;28;20214;-72
2023/04/28 00:51:51;;;;;;;8.40;7.60;;;;;19.80;100205.00;;;;2065186;28;20223;-71
2023/04/28 00:52:52;;;;;;;9.37;8.43;;;;;19.80;100207.00;;;;2065326;28;20246;-71
2023/04/28 00:53:52;;;;;;;8.47;7.67;;;;;19.90;100205.00;;;;2068333;28;20233;-71
2023/04/28 00:54:53;;;;;;;7.73;7.03;;;;;19.80;100181.00;;;;2064516;28;20223;-70
2023/04/28 00:55:55;;;;;;;8.90;7.97;;;;;19.90;100199.00;;;;2060493;28;20239;-71
2023/04/28 00:56:56;;;;;;;8.98;8.10;;;;;19.80;100195.00;;;;2064693;28;20319;-71
2023/04/28 00:57:56;;;;;;;7.93;7.13;;;;;19.80;100195.00;;;;2063489;28;20218;-71
2023/04/28 00:58:57;;;;;;;9.13;8.27;;;;;19.80;100188.00;;;;2056541;28;20637;-71
2023/04/28 00:59:57;;;;;;;8.67;7.77;;;;;19.80;100179.00;;;;2064667;28;20578;-70
2023/04/28 01:01:04;;;;;;;8.03;7.10;;;;;19.90;100168.00;;;;2056318;28;20262;-71
2023/04/28 01:02:05;;;;;;;7.95;7.15;;;;;19.80;100189.00;;;;2052138;28;20216;-70
2023/04/28 01:03:06;;;;;;;8.50;7.45;;;;;19.80;100184.00;;;;2065254;28;20591;-70
2023/04/28 01:04:06;;;;;;;7.65;6.85;;;;;19.80;100184.00;;;;2065408;28;20289;-71
2023/04/28 01:05:08;;;;;;;8.53;7.73;;;;;19.90;100198.00;;;;2056652;28;20282;-71
2023/04/28 01:06:08;;;;;;;8.07;7.32;;;;;19.80;100190.00;;;;2064827;28;20301;-71
2023/04/28 01:07:08;;;;;;;7.30;6.60;;;;;19.80;100199.00;;;;2067950;28;20206;-70
2023/04/28 01:08:09;;;;;;;6.87;6.20;;;;;19.80;100198.00;;;;2072474;28;20206;-71
2023/04/28 01:09:09;;;;;;;8.03;7.27;;;;;19.80;100196.00;;;;2065024;28;20284;-71
2023/04/28 01:10:10;;;;;;;8.00;7.20;;;;;19.80;100196.00;;;;2065334;28;20207;-70
2023/04/28 01:11:12;;;;;;;7.20;6.50;;;;;19.80;100197.00;;;;2064841;28;20281;-71
2023/04/28 01:12:13;;;;;;;8.93;6.72;;;;;19.80;100197.00;;;;2068835;28;20206;-70
2023/04/28 01:13:13;;;;;;;7.40;6.63;;;;;19.80;100195.00;;;;2070689;28;21802;-71
2023/04/28 01:14:13;;;;;;;8.27;7.23;;;;;19.80;100188.00;;;;2065403;28;20223;-71
2023/04/28 01:15:18;;;;;;;8.13;6.57;;;;;19.80;100186.00;;;;2065407;28;20254;-70
2023/04/28 01:16:19;;;;;;;8.25;6.95;;;;;19.80;100190.00;;;;2059026;28;20247;-70
2023/04/28 01:17:20;;;;;;;7.07;6.37;;;;;19.80;100186.00;;;;2060414;28;20223;-70
2023/04/28 01:18:20;;;;;;;7.57;6.43;;;;;19.80;100179.00;;;;2065104;28;20219;-71
2023/04/28 01:19:21;;;;;;;6.00;5.50;;;;;19.80;100179.00;;;;2070102;28;20214;-70
2023/04/28 01:20:21;;;;;;;6.77;6.07;;;;;19.80;100178.00;;;;2069683;28;20234;-71
2023/04/28 01:21:27;;;;;;;8.90;7.00;;;;;19.80;100188.00;;;;2065398;28;20559;-71
2023/04/28 01:22:28;;;;;;;9.73;6.38;;;;;19.80;100187.00;;;;2071120;28;20240;-71
2023/04/28 01:23:28;;;;;;;7.30;6.40;;;;;19.80;100188.00;;;;2066222;28;20218;-71
2023/04/28 01:24:28;;;;;;;8.03;7.23;;;;;19.80;100189.00;;;;2065427;28;20215;-71
2023/04/28 01:25:29;;;;;;;6.80;6.10;;;;;19.80;100191.00;;;;2064637;28;21300;-70
2023/04/28 01:26:29;;;;;;;6.53;5.93;;;;;19.80;100188.00;;;;2065270;28;20741;-71
2023/04/28 01:27:29;;;;;;;6.83;6.23;;;;;19.80;100191.00;;;;2069257;28;20246;-70
2023/04/28 01:28:30;;;;;;;7.70;7.00;;;;;19.70;100187.00;;;;2069475;28;20268;-70
2023/04/28 01:29:30;;;;;;;7.47;6.73;;;;;19.70;100189.00;;;;2067594;28;20214;-70
2023/04/28 01:30:31;;;;;;;7.07;6.40;;;;;19.80;100186.00;;;;2065070;28;20231;-71
2023/04/28 01:31:31;;;;;;;10.17;6.23;;;;;19.80;100190.00;;;;2065379;28;20211;-70
2023/04/28 01:32:31;;;;;;;8.30;6.20;;;;;19.80;100183.00;;;;2065134;28;20667;-71
2023/04/28 01:33:32;;;;;;;6.40;5.80;;;;;19.80;100189.00;;;;2071270;28;20738;-70
2023/04/28 01:34:32;;;;;;;8.00;6.70;;;;;19.80;100186.00;;;;2068663;28;20207;-70
2023/04/28 01:35:32;;;;;;;6.70;5.90;;;;;19.80;100178.00;;;;2065217;28;20211;-70
2023/04/28 01:36:33;;;;;;;6.10;5.50;;;;;19.80;100179.00;;;;2065317;28;20683;-70
2023/04/28 01:37:33;;;;;;;6.60;6.00;;;;;19.80;100182.00;;;;2064509;28;20758;-71
2023/04/28 01:38:33;;;;;;;6.47;5.87;;;;;19.80;100177.00;;;;2071294;28;20592;-71
2023/04/28 01:39:34;;;;;;;5.97;5.30;;;;;19.80;100174.00;;;;2067145;28;20206;-71
2023/04/28 01:40:35;;;;;;;7.43;6.72;;;;;19.70;100178.00;;;;2064905;28;20203;-70
2023/04/28 01:41:35;;;;;;;6.73;6.03;;;;;19.70;100169.00;;;;2069185;28;20693;-70
2023/04/28 01:42:35;;;;;;;7.10;6.13;;;;;19.70;100175.00;;;;2065075;28;20638;-71
2023/04/28 01:43:36;;;;;;;7.43;6.63;;;;;19.70;100174.00;;;;2071621;28;20547;-71
2023/04/28 01:44:36;;;;;;;7.00;6.30;;;;;19.80;100175.00;;;;2066795;28;20657;-71
2023/04/28 01:45:36;;;;;;;5.97;5.37;;;;;19.80;100165.00;;;;2065150;28;20556;-70
2023/04/28 01:46:37;;;;;;;6.40;5.80;;;;;19.70;100166.00;;;;2064307;28;20728;-70
2023/04/28 01:47:37;;;;;;;7.37;5.80;;;;;19.70;100167.00;;;;2065879;28;20211;-70
2023/04/28 01:48:37;;;;;;;7.07;5.67;;;;;19.70;100165.00;;;;2069479;28;20202;-70
2023/04/28 01:49:38;;;;;;;6.30;5.57;;;;;19.80;100167.00;;;;2064994;28;20246;-70
2023/04/28 01:50:38;;;;;;;6.10;5.50;;;;;19.70;100170.00;;;;2064992;28;20209;-71
2023/04/28 01:51:39;;;;;;;5.80;5.30;;;;;19.70;100166.00;;;;2064574;28;20206;-70
2023/04/28 01:52:39;;;;;;;5.85;5.28;;;;;19.70;100172.00;;;;2064744;28;20583;-70
2023/04/28 01:53:40;;;;;;;5.50;5.00;;;;;19.70;100170.00;;;;2067515;28;20217;-70
2023/04/28 01:54:40;;;;;;;5.40;5.00;;;;;19.70;100176.00;;;;2072079;28;20214;-70
2023/04/28 01:55:40;;;;;;;6.27;5.67;;;;;19.70;100172.00;;;;2067055;28;20242;-70
2023/04/28 01:56:41;;;;;;;6.50;5.63;;;;;19.70;100173.00;;;;2064909;28;20219;-70
2023/04/28 01:57:41;;;;;;;5.90;5.30;;;;;19.70;100169.00;;;;2071670;28;20214;-70
2023/04/28 01:58:41;;;;;;;5.80;5.20;;;;;19.70;100175.00;;;;2065442;28;20257;-70
2023/04/28 01:59:42;;;;;;;5.70;5.20;;;;;19.70;100178.00;;;;2063651;28;20260;-70
2023/04/28 02:00:42;;;;;;;6.60;6.00;;;;;19.70;100183.00;;;;2065729;28;20226;-70
2023/04/28 02:01:42;;;;;;;6.80;5.40;;;;;19.70;100180.00;;;;2071880;28;20214;-70
2023/04/28 02:02:42;;;;;;;5.63;5.13;;;;;19.70;100179.00;;;;2072649;28;20237;-70
2023/04/28 02:03:43;;;;;;;6.17;5.57;;;;;19.70;100171.00;;;;2068360;28;20223;-70
2023/04/28 02:04:43;;;;;;;6.47;5.87;;;;;19.70;100180.00;;;;2064847;28;20567;-70
2023/04/28 02:05:43;;;;;;;6.00;5.40;;;;;19.70;100174.00;;;;2072180;28;20623;-71
2023/04/28 02:06:44;;;;;;;5.60;5.10;;;;;19.70;100174.00;;;;2067632;28;21381;-70
2023/04/28 02:07:45;;;;;;;5.47;4.97;;;;;19.70;100174.00;;;;2072682;28;20229;-70
2023/04/28 02:08:45;;;;;;;6.13;5.53;;;;;19.70;100180.00;;;;2058484;28;20238;-70
2023/04/28 02:09:45;;;;;;;5.87;5.27;;;;;19.70;100174.00;;;;2071918;28;20521;-70
2023/04/28 02:10:46;;;;;;;6.60;5.43;;;;;19.70;100165.00;;;;2064879;28;20211;-70
2023/04/28 02:11:46;;;;;;;5.83;5.07;;;;;19.70;100157.00;;;;2065268;28;20250;-71
2023/04/28 02:12:46;;;;;;;5.77;5.23;;;;;19.70;100164.00;;;;2072719;28;20224;-70
2023/04/28 02:13:47;;;;;;;5.87;5.37;;;;;19.70;100161.00;;;;2065426;28;20288;-70
2023/04/28 02:14:47;;;;;;;5.80;5.23;;;;;19.70;100165.00;;;;2064979;28;20222;-70
2023/04/28 02:15:47;;;;;;;6.93;5.53;;;;;19.70;100156.00;;;;2064457;28;20293;-70
2023/04/28 02:16:48;;;;;;;6.47;5.33;;;;;19.70;100164.00;;;;2065061;28;20230;-70
2023/04/28 02:17:48;;;;;;;6.50;5.50;;;;;19.70;100147.00;;;;2072661;28;20234;-70
2023/04/28 02:18:48;;;;;;;5.67;5.17;;;;;19.70;100152.00;;;;2064672;28;20251;-70
2023/04/28 02:19:55;;;;;;;5.90;5.10;;;;;19.70;100153.00;;;;2069775;28;20227;-70
2023/04/28 02:20:55;;;;;;;6.50;5.80;;;;;19.70;100141.00;;;;2058168;28;20227;-71
2023/04/28 02:21:55;;;;;;;5.63;5.13;;;;;19.70;100138.00;;;;2050002;28;20714;-71
2023/04/28 02:22:56;;;;;;;6.00;5.40;;;;;19.70;100141.00;;;;2061306;28;20250;-71
2023/04/28 02:23:56;;;;;;;5.70;5.20;;;;;19.70;100150.00;;;;2064819;28;20215;-71
2023/04/28 02:24:56;;;;;;;5.70;5.20;;;;;19.70;100142.00;;;;2065462;28;20257;-71
2023/04/28 02:26:00;;;;;;;5.50;5.00;;;;;19.70;100139.00;;;;2065214;28;20215;-71
2023/04/28 02:27:00;;;;;;;5.75;5.20;;;;;19.70;100134.00;;;;2065037;28;20691;-70
2023/04/28 02:28:01;;;;;;;6.47;5.13;;;;;19.70;100131.00;;;;2064239;28;20222;-71
2023/04/28 02:29:04;;;;;;;6.10;5.50;;;;;19.60;100135.00;;;;2066513;28;20233;-70
2023/04/28 02:30:05;;;;;;;6.15;5.55;;;;;19.60;100129.00;;;;2064132;28;20686;-70
2023/04/28 02:31:06;;;;;;;6.10;5.43;;;;;19.70;100131.00;;;;2066740;28;20246;-70
2023/04/28 02:32:06;;;;;;;5.60;5.10;;;;;19.70;100131.00;;;;2070539;28;20698;-71
2023/04/28 02:33:07;;;;;;;4.70;4.30;;;;;19.70;100116.00;;;;2064289;28;21015;-70
2023/04/28 02:34:07;;;;;;;5.10;4.60;;;;;19.70;100127.00;;;;2065598;28;20257;-70
2023/04/28 02:35:07;;;;;;;5.33;4.83;;;;;19.70;100134.00;;;;2066273;28;20218;-70
2023/04/28 02:36:08;;;;;;;5.53;5.00;;;;;19.70;100128.00;;;;2068462;28;20273;-70
2023/04/28 02:37:09;;;;;;;5.70;5.10;;;;;19.70;100130.00;;;;2064533;28;20304;-71
2023/04/28 02:38:09;;;;;;;6.07;5.47;;;;;19.60;100127.00;;;;2064004;28;20215;-70
2023/04/28 02:39:09;;;;;;;6.10;5.50;;;;;19.60;100123.00;;;;2064516;28;20223;-70
2023/04/28 02:40:10;;;;;;;6.23;5.63;;;;;19.60;100127.00;;;;2066432;28;20226;-71
2023/04/28 02:41:10;;;;;;;5.43;4.93;;;;;19.60;100138.00;;;;2066921;28;20211;-70
2023/04/28 02:42:11;;;;;;;6.00;4.60;;;;;19.70;100135.00;;;;2063917;28;20214;-70
2023/04/28 02:43:11;;;;;;;6.37;5.00;;;;;19.70;100139.00;;;;2064479;28;20709;-70
2023/04/28 02:44:11;;;;;;;6.67;5.67;;;;;19.70;100146.00;;;;2064467;28;20843;-70
2023/04/28 02:45:12;;;;;;;5.63;5.10;;;;;19.70;100136.00;;;;2067604;28;20682;-70
2023/04/28 02:46:12;;;;;;;5.83;5.23;;;;;19.60;100146.00;;;;2068600;28;20273;-70
2023/04/28 02:47:12;;;;;;;5.40;4.90;;;;;19.60;100143.00;;;;2057362;28;20299;-70
2023/04/28 02:48:13;;;;;;;5.80;5.30;;;;;19.60;100141.00;;;;2055390;28;20227;-70
2023/04/28 02:49:13;;;;;;;6.57;5.70;;;;;19.60;100135.00;;;;2063740;28;20211;-70
2023/04/28 02:50:13;;;;;;;5.53;5.03;;;;;19.60;100134.00;;;;2067044;28;20234;-70
2023/04/28 02:51:14;;;;;;;5.37;4.77;;;;;19.60;100140.00;;;;2065417;28;20214;-70
2023/04/28 02:52:14;;;;;;;6.27;5.67;;;;;19.60;100128.00;;;;2067480;28;20210;-70
2023/04/28 02:53:15;;;;;;;5.53;5.00;;;;;19.60;100136.00;;;;2069322;28;20218;-70
2023/04/28 02:54:15;;;;;;;5.47;4.90;;;;;19.60;100134.00;;;;2063985;28;20207;-70
2023/04/28 02:55:22;;;;;;;5.73;5.10;;;;;19.60;100135.00;;;;2065808;28;20210;-70
2023/04/28 02:56:23;;;;;;;5.18;4.68;;;;;19.60;100132.00;;;;2064298;28;20230;-70
2023/04/28 02:57:23;;;;;;;5.40;4.83;;;;;19.70;100129.00;;;;2064204;28;20608;-71
2023/04/28 02:58:23;;;;;;;5.53;5.00;;;;;19.60;100130.00;;;;2063879;28;20219;-71
2023/04/28 02:59:24;;;;;;;5.70;4.50;;;;;19.60;100128.00;;;;2064311;28;20207;-71
2023/04/28 03:00:24;;;;;;;5.33;4.80;;;;;19.60;100129.00;;;;2067908;28;20297;-71
2023/04/28 03:01:24;;;;;;;6.70;6.00;;;;;19.70;100133.00;;;;2067865;28;20206;-71
2023/04/28 03:02:25;;;;;;;5.40;4.90;;;;;19.60;100128.00;;;;2068373;28;20233;-70
2023/04/28 03:03:25;;;;;;;6.13;4.87;;;;;19.60;100128.00;;;;2062388;28;20240;-71
2023/04/28 03:04:26;;;;;;;6.60;6.00;;;;;19.60;100131.00;;;;2057814;28;20225;-71
2023/04/28 03:05:26;;;;;;;5.40;4.90;;;;;19.60;100132.00;;;;2058717;28;20262;-71
2023/04/28 03:06:27;;;;;;;5.47;4.70;;;;;19.60;100134.00;;;;2061248;28;21096;-71
2023/04/28 03:07:27;;;;;;;5.50;4.67;;;;;19.60;100125.00;;;;2063753;28;20570;-70
2023/04/28 03:08:27;;;;;;;5.37;4.87;;;;;19.60;100123.00;;;;2063827;28;20274;-71
2023/04/28 03:09:28;;;;;;;5.07;4.57;;;;;19.60;100127.00;;;;2058963;28;20304;-71
2023/04/28 03:10:28;;;;;;;5.50;4.97;;;;;19.60;100123.00;;;;2060642;28;20202;-71
2023/04/28 03:11:28;;;;;;;5.63;5.13;;;;;19.60;100121.00;;;;2059197;28;20257;-70
2023/04/28 03:12:29;;;;;;;5.97;5.07;;;;;19.60;100121.00;;;;2064269;28;20216;-71
2023/04/28 03:13:29;;;;;;;6.37;5.30;;;;;19.60;100115.00;;;;2061213;28;20238;-70
2023/04/28 03:14:29;;;;;;;5.90;5.30;;;;;19.60;100114.00;;;;2059309;28;20214;-70
2023/04/28 03:15:30;;;;;;;5.93;5.40;;;;;19.60;100123.00;;;;2058288;28;20218;-71
2023/04/28 03:16:30;;;;;;;5.47;4.97;;;;;19.60;100114.00;;;;2060377;28;20226;-70
2023/04/28 03:17:30;;;;;;;7.27;4.90;;;;;19.60;100119.00;;;;2064318;28;20206;-71
2023/04/28 03:18:31;;;;;;;5.40;4.90;;;;;19.60;100119.00;;;;2052021;28;20310;-71
2023/04/28 03:19:32;;;;;;;5.40;4.90;;;;;19.60;100119.00;;;;2054246;28;20207;-70
2023/04/28 03:20:32;;;;;;;5.47;4.97;;;;;19.60;100117.00;;;;2061694;28;20202;-70
2023/04/28 03:21:32;;;;;;;5.37;4.87;;;;;19.60;100119.00;;;;2060138;28;20207;-70
2023/04/28 03:22:33;;;;;;;5.80;4.90;;;;;19.60;100122.00;;;;2069931;28;20233;-71
2023/04/28 03:23:33;;;;;;;5.33;4.83;;;;;19.60;100108.00;;;;2064780;28;20210;-71
2023/04/28 03:24:34;;;;;;;5.90;4.73;;;;;19.60;100112.00;;;;2056029;28;20203;-71
2023/04/28 03:25:34;;;;;;;5.77;4.67;;;;;19.60;100109.00;;;;2058472;28;20246;-71
2023/04/28 03:26:35;;;;;;;6.37;5.20;;;;;19.60;100110.00;;;;2070115;28;20686;-71
2023/04/28 03:27:35;;;;;;;5.03;4.50;;;;;19.60;100096.00;;;;2071483;28;20637;-70
2023/04/28 03:28:36;;;;;;;5.10;4.60;;;;;19.60;100105.00;;;;2069979;28;20674;-70
2023/04/28 03:29:36;;;;;;;5.70;5.20;;;;;19.60;100098.00;;;;2059819;28;20770;-70
2023/04/28 03:30:36;;;;;;;5.97;5.40;;;;;19.60;100096.00;;;;2055861;28;20661;-70
2023/04/28 03:31:37;;;;;;;5.53;4.73;;;;;19.60;100095.00;;;;2064511;28;20230;-70
2023/04/28 03:32:37;;;;;;;5.77;5.13;;;;;19.60;100101.00;;;;2064062;28;20247;-70
2023/04/28 03:33:37;;;;;;;4.77;4.20;;;;;19.60;100101.00;;;;2070482;28;20711;-71
2023/04/28 03:34:38;;;;;;;5.23;4.73;;;;;19.60;100105.00;;;;2067194;28;20286;-70
2023/04/28 03:35:38;;;;;;;5.70;5.00;;;;;19.60;100097.00;;;;2064303;28;20628;-71
2023/04/28 03:36:38;;;;;;;5.80;5.30;;;;;19.60;100101.00;;;;2070320;28;20213;-71
2023/04/28 03:37:39;;;;;;;5.13;4.63;;;;;19.60;100106.00;;;;2057827;28;20235;-70
2023/04/28 03:38:40;;;;;;;5.30;4.80;;;;;19.60;100103.00;;;;2062292;28;20241;-70
2023/04/28 03:39:40;;;;;;;5.33;4.83;;;;;19.60;100101.00;;;;2067471;28;20221;-70
2023/04/28 03:40:40;;;;;;;6.13;5.30;;;;;19.60;100094.00;;;;2071087;28;20232;-70
2023/04/28 03:41:41;;;;;;;6.10;5.50;;;;;19.60;100096.00;;;;2070060;28;20209;-71
2023/04/28 03:42:41;;;;;;;5.30;4.80;;;;;19.60;100092.00;;;;2064083;28;20217;-70
2023/04/28 03:43:41;;;;;;;5.73;5.13;;;;;19.60;100085.00;;;;2064307;28;20223;-71
2023/04/28 03:44:42;;;;;;;5.00;4.50;;;;;19.60;100092.00;;;;2064347;28;20207;-71
2023/04/28 03:45:42;;;;;;;5.53;5.00;;;;;19.60;100089.00;;;;2064313;28;20202;-71
2023/04/28 03:46:42;;;;;;;5.90;5.37;;;;;19.50;100088.00;;;;2063659;28;20341;-70
2023/04/28 03:47:43;;;;;;;6.30;5.47;;;;;19.60;100090.00;;;;2063798;28;20217;-71
2023/04/28 03:48:44;;;;;;;6.07;5.47;;;;;19.60;100083.00;;;;2068402;28;20222;-71
2023/04/28 03:49:45;;;;;;;5.10;4.60;;;;;19.60;100086.00;;;;2062230;28;20207;-70
2023/04/28 03:50:45;;;;;;;5.40;4.13;;;;;19.60;100083.00;;;;2059072;28;20215;-70
2023/04/28 03:51:46;;;;;;;5.10;4.60;;;;;19.50;100074.00;;;;2062803;28;20246;-70
2023/04/28 03:52:47;;;;;;;5.30;4.80;;;;;19.60;100074.00;;;;2065076;28;20315;-70
2023/04/28 03:53:47;;;;;;;5.27;4.77;;;;;19.60;100074.00;;;;2063787;28;20226;-70
2023/04/28 03:54:47;;;;;;;4.53;4.13;;;;;19.60;100077.00;;;;2071446;28;20244;-70
2023/04/28 03:55:48;;;;;;;5.50;4.93;;;;;19.60;100078.00;;;;2066711;28;20227;-70
2023/04/28 03:56:48;;;;;;;5.00;4.60;;;;;19.60;100065.00;;;;2070429;28;20233;-71
2023/04/28 03:57:48;;;;;;;6.10;5.50;;;;;19.60;100061.00;;;;2064297;28;20318;-70
2023/04/28 03:58:49;;;;;;;5.40;4.90;;;;;19.60;100070.00;;;;2067949;28;20214;-70
2023/04/28 03:59:50;;;;;;;5.27;4.77;;;;;19.60;100062.00;;;;2072421;28;20222;-70
2023/04/28 04:00:50;;;;;;;4.88;4.47;;;;;19.60;100062.00;;;;2064703;28;20222;-70
2023/04/28 04:01:50;;;;;;;4.90;4.40;;;;;19.60;100063.00;;;;2064233;28;20927;-70
2023/04/28 04:02:51;;;;;;;5.03;4.53;;;;;19.50;100065.00;;;;2071816;28;20253;-70
2023/04/28 04:03:51;;;;;;;4.77;4.37;;;;;19.60;100066.00;;;;2069984;28;20685;-70
2023/04/28 04:04:51;;;;;;;5.50;5.00;;;;;19.60;100058.00;;;;2065027;28;20694;-70
2023/04/28 04:05:52;;;;;;;5.37;4.87;;;;;19.60;100057.00;;;;2072075;28;20678;-70
2023/04/28 04:06:53;;;;;;;5.50;5.00;;;;;19.50;100050.00;;;;2067104;28;20238;-71
2023/04/28 04:07:53;;;;;;;5.93;5.00;;;;;19.50;100051.00;;;;2072019;28;20218;-70
2023/04/28 04:08:54;;;;;;;5.63;5.10;;;;;19.60;100043.00;;;;2063796;28;20276;-70
2023/04/28 04:09:54;;;;;;;5.77;4.70;;;;;19.50;100040.00;;;;2054889;28;20243;-71
2023/04/28 04:10:55;;;;;;;5.40;4.90;;;;;19.50;100038.00;;;;2063521;28;20456;-70
2023/04/28 04:11:56;;;;;;;5.00;4.50;;;;;19.50;100037.00;;;;2064948;28;20582;-70
2023/04/28 04:12:56;;;;;;;4.30;3.90;;;;;19.50;100038.00;;;;2072184;28;20222;-70
2023/04/28 04:13:56;;;;;;;4.57;4.20;;;;;19.50;100038.00;;;;2062183;28;20478;-70
2023/04/28 04:14:56;;;;;;;4.07;3.67;;;;;19.50;100032.00;;;;2063952;28;20218;-71
2023/04/28 04:15:57;;;;;;;5.43;4.93;;;;;19.50;100029.00;;;;2063735;28;20234;-70
2023/04/28 04:16:57;;;;;;;6.37;5.20;;;;;19.50;100034.00;;;;2063974;28;20214;-71
2023/04/28 04:17:57;;;;;;;4.77;4.37;;;;;19.50;100035.00;;;;2071392;28;20222;-70
2023/04/28 04:18:58;;;;;;;4.93;4.30;;;;;19.50;100041.00;;;;2066042;28;20223;-70
2023/04/28 04:19:58;;;;;;;5.03;4.63;;;;;19.50;100040.00;;;;2064035;28;20222;-70
2023/04/28 04:20:58;;;;;;;5.20;4.70;;;;;19.50;100038.00;;;;2064424;28;20219;-70
2023/04/28 04:21:59;;;;;;;5.40;4.73;;;;;19.50;100034.00;;;;2065325;28;20243;-70
2023/04/28 04:23:00;;;;;;;4.87;4.37;;;;;19.50;100031.00;;;;2069698;28;20224;-70
2023/04/28 04:24:01;;;;;;;4.35;3.95;;;;;19.50;100031.00;;;;2062768;28;20309;-70
2023/04/28 04:25:01;;;;;;;4.50;4.00;;;;;19.50;100022.00;;;;2067855;28;20772;-70
2023/04/28 04:26:01;;;;;;;4.80;4.30;;;;;19.50;100023.00;;;;2063751;28;20311;-70
2023/04/28 04:27:02;;;;;;;4.77;4.27;;;;;19.50;100018.00;;;;2056726;28;20266;-70
2023/04/28 04:28:02;;;;;;;4.63;4.23;;;;;19.50;100016.00;;;;2058895;28;20212;-70
2023/04/28 04:29:02;;;;;;;5.53;4.77;;;;;19.50;100017.00;;;;2064866;28;20602;-70
2023/04/28 04:30:04;;;;;;;4.87;4.47;;;;;19.50;100014.00;;;;2064984;28;20245;-70
2023/04/28 04:31:04;;;;;;;5.55;4.97;;;;;19.50;100016.00;;;;2064944;28;20286;-70
2023/04/28 04:32:04;;;;;;;4.27;3.87;;;;;19.40;100020.00;;;;2065528;28;20199;-71
2023/04/28 04:33:05;;;;;;;4.87;3.90;;;;;19.50;100026.00;;;;2066444;28;20204;-70
2023/04/28 04:34:05;;;;;;;4.63;4.23;;;;;19.50;100032.00;;;;2072383;28;20232;-70
2023/04/28 04:35:06;;;;;;;3.80;3.50;;;;;19.50;100036.00;;;;2065237;28;20211;-70
2023/04/28 04:36:06;;;;;;;4.40;4.00;;;;;19.50;100039.00;;;;2065423;28;20211;-70
2023/04/28 04:37:08;;;;;;;4.80;4.30;;;;;19.50;100041.00;;;;2066794;28;20357;-70
2023/04/28 04:38:09;;;;;;;5.07;4.22;;;;;19.50;100043.00;;;;2066365;28;20214;-70
2023/04/28 04:39:09;;;;;;;5.90;4.23;;;;;19.50;100048.00;;;;2073402;28;20458;-70
2023/04/28 04:40:09;;;;;;;4.93;3.70;;;;;19.50;100036.00;;;;2067222;28;20222;-70
2023/04/28 04:41:10;;;;;;;5.23;3.60;;;;;19.50;100041.00;;;;2064484;28;20219;-70
2023/04/28 04:42:10;;;;;;;4.70;4.30;;;;;19.50;100038.00;;;;2065509;28;20296;-70
2023/04/28 04:43:10;;;;;;;4.60;4.20;;;;;19.50;100044.00;;;;2067551;28;20219;-70
2023/04/28 04:44:11;;;;;;;4.70;4.30;;;;;19.50;100047.00;;;;2072755;28;20234;-71
2023/04/28 04:45:11;;;;;;;4.57;4.17;;;;;19.50;100038.00;;;;2067686;28;20277;-71
2023/04/28 04:46:12;;;;;;;4.70;4.30;;;;;19.50;100054.00;;;;2060589;28;20647;-71
2023/04/28 04:47:12;;;;;;;4.60;4.20;;;;;19.50;100048.00;;;;2059593;28;20624;-71
2023/04/28 04:48:13;;;;;;;4.77;4.37;;;;;19.50;100047.00;;;;2061370;28;20226;-70
2023/04/28 04:49:13;;;;;;;4.43;4.03;;;;;19.50;100046.00;;;;2067196;28;20238;-70
2023/04/28 04:50:13;;;;;;;4.87;4.47;;;;;19.50;100056.00;;;;2067314;28;20530;-70
2023/04/28 04:51:14;;;;;;;5.10;4.60;;;;;19.50;100041.00;;;;2067578;28;20634;-70
2023/04/28 04:52:14;;;;;;;5.30;4.67;;;;;19.50;100048.00;;;;2069233;28;20213;-70
2023/04/28 04:53:14;;;;;;;4.70;4.30;;;;;19.50;100045.00;;;;2073300;28;20210;-70
2023/04/28 04:54:15;;;;;;;4.00;3.70;;;;;19.50;100037.00;;;;2068392;28;20229;-70
2023/04/28 04:55:15;;;;;;;4.70;4.30;;;;;19.50;100038.00;;;;2071223;28;20214;-70
2023/04/28 04:56:15;;;;;;;4.20;3.80;;;;;19.50;100031.00;;;;2068407;28;20602;-70
2023/04/28 04:57:16;;;;;;;6.27;4.20;;;;;19.50;100031.00;;;;2065236;28;20288;-70
2023/04/28 04:58:16;;;;;;;4.27;3.87;;;;;19.50;100027.00;;;;2065066;28;20222;-70